Time;durP1;ratioP1;P1;durP2;ratioP2;P2;SDS_P1;SDS_P2;PMS_P1;PMS_P2;Temp;Humidity;BMP_temperature;BMP_pressure;BME280_temperature;BME280_humidity;BME280_pressure;Samples;Min_cycle;Max_cycle;Signal;HPM_P1;HPM_P2
2022/07/20 00:01:35;;;;;;;8.30;3.88;;;22.10;90.20;;;;;;5025926;28;20025;-54
2022/07/20 00:04:01;;;;;;;7.00;3.10;;;22.20;99.90;;;;;;5020795;28;20033;-53
2022/07/20 00:06:27;;;;;;;11.07;3.30;;;22.20;92.70;;;;;;5026213;28;20068;-55
2022/07/20 00:11:37;;;;;;;3.70;2.65;;;21.80;89.50;;;;;;5023599;28;20037;-53
2022/07/20 00:14:04;;;;;;;3.92;2.30;;;;;;;;;;5028152;28;20045;-52
2022/07/20 00:16:32;;;;;;;8.60;2.53;;;21.50;95.00;;;;;;5023431;28;20061;-54
2022/07/20 00:18:58;;;;;;;4.15;2.30;;;20.90;90.40;;;;;;5028665;28;20029;-54
2022/07/20 00:21:24;;;;;;;4.15;2.60;;;20.80;92.80;;;;;;5025164;28;20449;-53
2022/07/20 00:23:50;;;;;;;7.25;2.60;;;;;;;;;;5022342;28;20059;-53
2022/07/20 00:26:17;;;;;;;5.80;2.53;;;;;;;;;;5027058;28;20044;-53
2022/07/20 00:28:43;;;;;;;6.03;2.50;;;;;;;;;;5022385;28;20159;-54
2022/07/20 00:31:09;;;;;;;4.95;2.22;;;;;;;;;;5024588;28;20025;-54
2022/07/20 00:33:36;;;;;;;8.55;2.80;;;;;;;;;;5019707;28;20042;-54
2022/07/20 00:36:02;;;;;;;6.20;3.10;;;;;;;;;;5028893;28;20117;-52
2022/07/20 00:38:29;;;;;;;6.63;2.75;;;;;;;;;;5024871;28;20034;-53
2022/07/20 00:40:55;;;;;;;7.07;2.65;;;;;;;;;;5046772;28;20441;-54
2022/07/20 00:43:20;;;;;;;8.63;2.90;;;20.80;99.90;;;;;;5025301;28;20140;-54
2022/07/20 00:45:46;;;;;;;6.20;3.30;;;20.90;91.40;;;;;;5025827;28;20029;-52
2022/07/20 00:48:12;;;;;;;6.97;2.78;;;20.80;91.70;;;;;;5026122;28;20530;-53
2022/07/20 00:50:38;;;;;;;8.77;3.05;;;20.50;92.50;;;;;;5028795;28;20022;-53
2022/07/20 00:53:05;;;;;;;6.03;2.70;;;20.60;92.90;;;;;;5032543;28;20473;-55
2022/07/20 00:55:31;;;;;;;10.40;3.30;;;20.70;92.70;;;;;;5032534;28;20048;-53
2022/07/20 00:57:56;;;;;;;10.10;3.15;;;20.70;92.70;;;;;;5057945;28;20045;-54
2022/07/20 01:00:23;;;;;;;6.70;3.20;;;21.00;96.50;;;;;;5030280;28;20022;-54
2022/07/20 01:02:48;;;;;;;6.18;3.33;;;20.80;92.70;;;;;;5038530;28;20404;-53
2022/07/20 01:05:14;;;;;;;5.25;3.03;;;20.90;92.40;;;;;;5030582;28;20045;-53
2022/07/20 01:07:44;;;;;;;10.85;2.92;;;20.90;92.40;;;;;;5049051;28;20036;-56
2022/07/20 01:10:12;;;;;;;8.02;3.38;;;21.00;92.30;;;;;;5029089;28;20030;-54
2022/07/20 01:12:38;;;;;;;7.35;3.63;;;21.10;92.40;;;;;;5028098;28;20025;-53
2022/07/20 01:15:06;;;;;;;8.20;3.00;;;21.10;92.40;;;;;;5028550;28;20057;-53
2022/07/20 01:17:31;;;;;;;7.93;2.90;;;21.10;92.40;;;;;;5044070;28;20559;-54
2022/07/20 01:19:57;;;;;;;6.90;2.97;;;21.10;96.70;;;;;;5057723;28;20045;-52
2022/07/20 01:22:23;;;;;;;4.35;2.90;;;20.90;95.80;;;;;;5027509;28;20037;-55
2022/07/20 01:24:49;;;;;;;4.50;2.75;;;21.00;92.20;;;;;;5031959;28;20045;-53
2022/07/20 01:27:14;;;;;;;6.50;3.15;;;21.00;92.50;;;;;;5008057;28;20134;-54
2022/07/20 01:29:40;;;;;;;8.43;2.90;;;21.00;92.40;;;;;;5031802;28;20736;-54
2022/07/20 01:32:06;;;;;;;6.22;3.42;;;20.90;92.30;;;;;;5034348;28;20052;-54
2022/07/20 01:34:31;;;;;;;7.63;4.22;;;20.90;92.40;;;;;;5027009;28;20033;-52
2022/07/20 01:36:57;;;;;;;5.78;4.30;;;20.70;96.40;;;;;;5061192;28;20038;-54
2022/07/20 01:39:23;;;;;;;7.72;4.18;;;20.70;92.40;;;;;;5030818;28;20026;-53
2022/07/20 01:41:52;;;;;;;8.20;4.00;;;;;;;;;;5032403;28;20026;-53
2022/07/20 01:44:22;;;;;;;9.27;4.00;;;20.80;97.00;;;;;;5031120;28;20049;-53
2022/07/20 01:46:49;;;;;;;14.07;4.57;;;20.50;96.60;;;;;;5055851;28;20485;-54
2022/07/20 01:49:16;;;;;;;6.72;3.97;;;20.50;92.60;;;;;;5025174;28;20033;-55
2022/07/20 01:51:42;;;;;;;10.13;3.90;;;20.40;92.60;;;;;;5011914;28;20665;-55
2022/07/20 01:54:07;;;;;;;10.50;3.60;;;20.40;92.60;;;;;;5024769;28;20096;-52
2022/07/20 01:56:33;;;;;;;8.68;3.47;;;20.40;92.60;;;;;;5030000;28;20025;-53
2022/07/20 01:58:59;;;;;;;7.35;2.83;;;20.40;92.70;;;;;;5053236;28;20572;-54
2022/07/20 02:01:25;;;;;;;6.65;2.88;;;20.40;92.70;;;;;;5027999;28;20465;-54
2022/07/20 02:03:50;;;;;;;4.35;2.85;;;20.20;92.80;;;;;;5030093;28;20040;-55
2022/07/20 02:06:16;;;;;;;5.40;3.38;;;20.10;93.00;;;;;;5043182;28;20546;-55
2022/07/20 02:08:42;;;;;;;4.25;2.78;;;20.00;93.20;;;;;;5023526;28;20385;-55
2022/07/20 02:11:07;;;;;;;4.40;3.10;;;20.00;93.30;;;;;;5043846;28;20041;-55
2022/07/20 02:13:36;;;;;;;13.98;3.85;;;19.80;93.50;;;;;;5029408;28;20478;-55
2022/07/20 02:16:15;;;;;;;8.90;4.47;;;19.80;93.80;;;;;;5026221;28;20124;-52
2022/07/20 02:18:52;;;;;;;6.55;3.97;;;19.80;94.10;;;;;;5030238;28;20652;-53
2022/07/20 02:21:20;;;;;;;5.57;3.50;;;19.80;94.20;;;;;;5029300;28;20105;-53
2022/07/20 02:23:46;;;;;;;7.47;3.30;;;19.80;94.40;;;;;;5027419;28;20034;-55
2022/07/20 02:26:12;;;;;;;5.00;3.35;;;19.80;94.40;;;;;;5026928;28;20493;-54
2022/07/20 02:28:38;;;;;;;8.48;3.95;;;19.80;94.60;;;;;;5018945;28;20041;-52
2022/07/20 02:31:05;;;;;;;6.45;3.38;;;19.70;94.80;;;;;;5021576;28;20447;-53
2022/07/20 02:33:31;;;;;;;8.00;3.60;;;19.80;94.90;;;;;;5047973;28;20056;-54
2022/07/20 02:35:57;;;;;;;6.35;3.95;;;19.80;94.70;;;;;;5022127;28;20486;-55
2022/07/20 02:38:23;;;;;;;7.45;3.38;;;19.60;94.70;;;;;;5026563;28;20052;-54
2022/07/20 02:40:49;;;;;;;6.05;2.90;;;19.60;94.70;;;;;;5027687;28;20476;-53
2022/07/20 02:43:15;;;;;;;6.13;3.30;;;19.60;94.80;;;;;;5026540;28;20481;-53
2022/07/20 02:45:41;;;;;;;7.55;3.22;;;19.60;94.80;;;;;;5026434;28;20025;-54
2022/07/20 02:48:07;;;;;;;7.53;3.60;;;19.60;94.70;;;;;;5023134;28;20042;-55
2022/07/20 02:50:36;;;;;;;7.57;3.30;;;19.60;94.50;;;;;;5029701;28;20391;-54
2022/07/20 02:53:02;;;;;;;6.93;3.22;;;19.60;94.40;;;;;;5024567;28;20076;-53
2022/07/20 02:55:28;;;;;;;7.10;3.22;;;19.70;94.40;;;;;;5027845;28;20414;-54
2022/07/20 02:57:54;;;;;;;10.23;3.30;;;19.80;94.40;;;;;;5059188;28;20048;-54
2022/07/20 03:00:20;;;;;;;8.10;2.53;;;19.80;94.10;;;;;;5060495;28;20523;-53
2022/07/20 03:02:47;;;;;;;10.18;3.20;;;19.80;93.70;;;;;;5061767;28;20024;-55
2022/07/20 03:05:12;;;;;;;10.98;4.45;;;19.70;93.70;;;;;;5057782;28;20237;-53
2022/07/20 03:07:38;;;;;;;19.52;4.80;;;19.70;93.80;;;;;;5056642;28;20526;-54
2022/07/20 03:10:05;;;;;;;6.93;4.30;;;19.80;93.90;;;;;;5033008;28;21285;-54
2022/07/20 03:12:31;;;;;;;10.25;4.43;;;19.50;93.50;;;;;;5064879;28;20041;-53
2022/07/20 03:14:56;;;;;;;7.68;4.30;;;19.40;93.80;;;;;;5057418;28;20060;-54
2022/07/20 03:17:22;;;;;;;7.53;3.80;;;19.60;93.60;;;;;;5060728;28;20036;-53
2022/07/20 03:19:48;;;;;;;6.07;4.38;;;19.50;93.30;;;;;;5034703;28;20068;-55
2022/07/20 03:22:14;;;;;;;6.88;3.88;;;19.20;93.90;;;;;;5064513;28;20044;-53
2022/07/20 03:24:40;;;;;;;7.13;3.38;;;18.90;94.30;;;;;;5057341;28;20062;-54
2022/07/20 03:27:06;;;;;;;9.68;3.05;;;18.90;94.60;;;;;;5044707;28;20478;-53
2022/07/20 03:29:32;;;;;;;5.15;3.22;;;19.10;94.90;;;;;;5009692;28;20037;-56
2022/07/20 03:31:58;;;;;;;5.82;2.63;;;18.60;95.40;;;;;;5029073;28;20033;-54
2022/07/20 03:34:23;;;;;;;5.47;2.85;;;18.20;96.70;;;;;;5023678;28;20033;-55
2022/07/20 03:36:49;;;;;;;7.38;3.05;;;18.20;97.30;;;;;;5025506;28;20029;-55
2022/07/20 03:39:15;;;;;;;6.07;2.80;;;18.50;99.90;;;;;;4988672;28;20030;-55
2022/07/20 03:41:41;;;;;;;10.70;3.70;;;18.80;99.90;;;;;;5032463;28;20065;-52
2022/07/20 03:44:07;;;;;;;8.88;4.68;;;19.10;99.90;;;;;;5024118;28;20074;-53
2022/07/20 03:46:33;;;;;;;7.97;3.42;;;19.30;99.90;;;;;;5031833;28;20362;-54
2022/07/20 03:48:59;;;;;;;12.70;4.20;;;19.40;99.90;;;;;;5054129;28;20040;-55
2022/07/20 03:51:25;;;;;;;9.15;3.40;;;19.50;99.90;;;;;;5031825;28;20087;-55
2022/07/20 03:53:51;;;;;;;16.35;3.88;;;19.70;99.90;;;;;;5032372;28;20041;-55
2022/07/20 03:56:16;;;;;;;10.77;3.60;;;19.80;99.90;;;;;;5031925;28;20030;-54
2022/07/20 03:58:42;;;;;;;9.18;2.80;;;19.80;99.90;;;;;;5031647;28;20021;-55
2022/07/20 04:01:08;;;;;;;8.30;2.80;;;19.70;99.90;;;;;;5031692;28;20449;-54
2022/07/20 04:03:34;;;;;;;7.78;3.35;;;19.60;99.90;;;;;;5031486;28;20037;-54
2022/07/20 04:06:03;;;;;;;6.75;3.65;;;19.70;99.90;;;;;;5053785;28;20080;-55
2022/07/20 04:08:29;;;;;;;6.85;2.97;;;19.70;99.90;;;;;;5032049;28;20504;-54
2022/07/20 04:10:54;;;;;;;6.63;2.70;;;19.80;99.90;;;;;;5031513;28;20037;-54
2022/07/20 04:13:20;;;;;;;5.72;2.60;;;19.80;99.90;;;;;;5031636;28;20026;-54
2022/07/20 04:15:47;;;;;;;4.80;2.70;;;19.90;99.90;;;;;;5031278;28;20033;-53
2022/07/20 04:18:15;;;;;;;9.18;2.80;;;;;;;;;;5031404;28;20032;-53
2022/07/20 04:20:41;;;;;;;7.78;4.00;;;20.20;99.90;;;;;;5031171;28;20385;-56
2022/07/20 04:23:07;;;;;;;10.23;3.50;;;20.30;99.90;;;;;;5031287;28;20048;-55
2022/07/20 04:25:33;;;;;;;6.88;3.70;;;20.40;99.90;;;;;;5030975;28;20374;-55
2022/07/20 04:27:59;;;;;;;4.82;3.00;;;20.50;99.90;;;;;;5018974;28;20044;-53
2022/07/20 04:30:25;;;;;;;8.55;3.70;;;20.60;99.90;;;;;;5045803;28;20049;-54
2022/07/20 04:32:50;;;;;;;7.30;3.35;;;20.70;99.90;;;;;;5031165;28;20134;-54
2022/07/20 04:35:16;;;;;;;6.88;3.08;;;20.80;99.90;;;;;;5031383;28;20167;-54
2022/07/20 04:37:42;;;;;;;5.90;3.20;;;20.80;99.90;;;;;;5031621;28;20501;-54
2022/07/20 04:40:09;;;;;;;7.47;3.22;;;20.80;99.90;;;;;;5031094;28;20072;-53
2022/07/20 04:42:35;;;;;;;10.35;2.97;;;21.00;99.90;;;;;;5028880;28;20409;-55
2022/07/20 04:45:01;;;;;;;7.07;3.13;;;20.90;99.90;;;;;;5031844;28;20073;-55
2022/07/20 04:47:28;;;;;;;6.38;3.42;;;20.90;99.90;;;;;;5012385;28;20489;-55
2022/07/20 04:49:54;;;;;;;8.60;3.83;;;21.10;99.90;;;;;;5030894;28;20039;-55
2022/07/20 04:52:19;;;;;;;9.63;4.88;;;21.20;99.90;;;;;;5031480;28;20036;-55
2022/07/20 04:54:45;;;;;;;9.68;4.80;;;21.40;99.90;;;;;;5030661;28;20456;-54
2022/07/20 04:57:11;;;;;;;9.02;4.60;;;21.50;99.90;;;;;;5030072;28;20038;-54
2022/07/20 04:59:37;;;;;;;12.38;4.72;;;21.60;99.90;;;;;;5031180;28;20083;-54
2022/07/20 05:02:04;;;;;;;8.88;4.97;;;21.70;99.90;;;;;;5031764;28;20026;-55
2022/07/20 05:04:29;;;;;;;11.90;4.45;;;21.80;99.90;;;;;;5028854;28;20049;-56
2022/07/20 05:06:55;;;;;;;7.93;4.20;;;21.90;99.90;;;;;;5030853;28;20064;-53
2022/07/20 05:09:21;;;;;;;12.05;4.88;;;22.10;99.90;;;;;;5031072;28;20567;-55
2022/07/20 05:11:47;;;;;;;14.30;4.25;;;22.00;99.90;;;;;;5031511;28;20025;-53
2022/07/20 05:14:13;;;;;;;12.40;4.60;;;;;;;;;;5030889;28;20041;-55
2022/07/20 05:16:39;;;;;;;16.23;4.80;;;;;;;;;;5030530;28;20028;-54
2022/07/20 05:19:06;;;;;;;15.25;5.65;;;;;;;;;;5030810;28;20123;-54
2022/07/20 05:21:32;;;;;;;8.45;4.05;;;;;;;;;;5026667;28;20123;-53
2022/07/20 05:23:58;;;;;;;12.82;4.30;;;;;;;;;;5019877;28;20045;-54
2022/07/20 05:26:24;;;;;;;8.77;4.00;;;;;;;;;;5031463;28;20116;-55
2022/07/20 05:28:51;;;;;;;9.30;4.80;;;;;;;;;;5030544;28;20026;-54
2022/07/20 05:31:18;;;;;;;7.03;4.28;;;;;;;;;;5030847;28;20021;-54
2022/07/20 05:33:44;;;;;;;12.00;3.88;;;;;;;;;;5031356;28;20350;-54
2022/07/20 05:36:10;;;;;;;9.07;4.40;;;22.70;99.90;;;;;;5030754;28;20079;-54
2022/07/20 05:38:36;;;;;;;8.45;4.13;;;22.50;94.50;;;;;;5033847;28;20568;-53
2022/07/20 05:41:02;;;;;;;7.30;4.10;;;22.60;99.90;;;;;;5049395;28;20039;-54
2022/07/20 05:43:28;;;;;;;12.50;5.03;;;22.50;99.90;;;;;;5033950;28;20036;-52
2022/07/20 05:45:54;;;;;;;9.82;5.00;;;22.60;99.90;;;;;;5034016;28;20025;-55
2022/07/20 05:48:19;;;;;;;15.88;6.10;;;22.70;95.10;;;;;;5034187;28;20029;-54
2022/07/20 05:50:45;;;;;;;8.95;4.82;;;23.00;95.00;;;;;;5034027;28;20037;-56
2022/07/20 05:53:12;;;;;;;13.82;4.55;;;23.10;94.30;;;;;;5034056;28;20029;-55
2022/07/20 05:55:40;;;;;;;8.77;4.15;;;23.20;94.50;;;;;;5034099;28;20096;-55
2022/07/20 05:58:06;;;;;;;9.13;3.80;;;;;;;;;;5033957;28;20477;-55
2022/07/20 06:00:34;;;;;;;6.43;3.90;;;23.50;99.90;;;;;;5033784;28;20084;-54
2022/07/20 06:03:00;;;;;;;9.25;3.80;;;23.60;94.20;;;;;;5034573;28;20073;-54
2022/07/20 06:05:26;;;;;;;8.80;3.70;;;;;;;;;;5032036;28;20030;-55
2022/07/20 06:07:57;;;;;;;9.98;3.88;;;;;;;;;;5031109;28;20033;-55
2022/07/20 06:10:23;;;;;;;8.07;4.28;;;23.40;99.90;;;;;;5020114;28;20531;-56
2022/07/20 06:12:49;;;;;;;12.82;4.50;;;23.70;93.70;;;;;;5025269;28;20029;-53
2022/07/20 06:15:15;;;;;;;8.95;3.08;;;23.80;93.90;;;;;;5021274;28;20576;-55
2022/07/20 06:17:41;;;;;;;7.20;3.75;;;24.00;93.20;;;;;;5028465;28;20029;-55
2022/07/20 06:20:11;;;;;;;10.45;3.97;;;;;;;;;;5023410;28;20025;-52
2022/07/20 06:22:38;;;;;;;7.00;4.30;;;24.30;93.00;;;;;;5020253;28;20034;-55
2022/07/20 06:25:05;;;;;;;11.75;4.53;;;;;;;;;;5024176;28;20022;-55
2022/07/20 06:27:32;;;;;;;7.68;3.70;;;24.40;93.60;;;;;;5025272;28;20021;-55
2022/07/20 06:29:58;;;;;;;12.70;4.75;;;24.50;92.80;;;;;;5028160;28;20420;-51
2022/07/20 06:32:24;;;;;;;8.70;4.43;;;24.50;93.20;;;;;;5020735;28;20060;-54
2022/07/20 06:34:50;;;;;;;10.63;4.10;;;24.60;93.10;;;;;;5021543;28;20050;-54
2022/07/20 06:37:16;;;;;;;10.15;4.00;;;;;;;;;;5022705;28;20396;-51
2022/07/20 06:39:42;;;;;;;15.02;4.65;;;24.90;92.70;;;;;;5022253;28;20396;-50
2022/07/20 06:42:08;;;;;;;9.73;4.50;;;24.80;93.00;;;;;;5018621;28;20085;-52
2022/07/20 06:44:34;;;;;;;11.57;4.05;;;24.90;93.00;;;;;;5023455;28;20050;-51
2022/07/20 06:47:00;;;;;;;13.35;4.82;;;25.00;93.20;;;;;;5043105;28;20045;-50
2022/07/20 06:49:27;;;;;;;13.65;4.40;;;25.20;93.20;;;;;;5039696;28;20467;-50
2022/07/20 06:51:53;;;;;;;12.95;4.65;;;25.30;92.90;;;;;;5020648;28;20033;-51
2022/07/20 06:54:19;;;;;;;12.25;4.22;;;;;;;;;;5019701;28;20072;-50
2022/07/20 06:56:45;;;;;;;15.20;4.10;;;;;;;;;;5020059;28;20382;-49
2022/07/20 06:59:11;;;;;;;13.00;4.18;;;;;;;;;;5021715;28;20041;-51
2022/07/20 07:01:37;;;;;;;13.55;4.60;;;;;;;;;;5022655;28;20417;-52
2022/07/20 07:04:04;;;;;;;9.57;3.72;;;;;;;;;;5022264;28;20030;-51
2022/07/20 07:06:32;;;;;;;8.73;3.85;;;;;;;;;;5023363;28;20387;-51
2022/07/20 07:08:59;;;;;;;12.05;4.07;;;;;;;;;;5022397;28;20036;-51
2022/07/20 07:11:25;;;;;;;8.27;3.83;;;26.30;92.10;;;;;;5020610;28;20026;-52
2022/07/20 07:13:51;;;;;;;16.17;3.75;;;26.40;92.10;;;;;;5023820;28;20143;-51
2022/07/20 07:16:17;;;;;;;9.45;3.80;;;26.50;91.70;;;;;;5026235;28;20036;-52
2022/07/20 07:18:43;;;;;;;13.00;3.63;;;26.70;90.90;;;;;;5040222;28;20497;-50
2022/07/20 07:21:09;;;;;;;11.68;3.45;;;;;;;;;;5032470;28;20420;-53
2022/07/20 07:23:35;;;;;;;10.15;3.22;;;;;;;;;;5032457;28;20029;-53
2022/07/20 07:26:02;;;;;;;7.28;3.20;;;;;;;;;;5032138;28;20034;-50
2022/07/20 07:28:28;;;;;;;9.43;3.25;;;;;;;;;;5032131;28;20124;-51
2022/07/20 07:30:54;;;;;;;10.90;3.33;;;27.70;90.30;;;;;;5046697;28;20382;-52
2022/07/20 07:33:25;;;;;;;11.18;4.18;;;27.70;90.50;;;;;;5030832;28;20087;-52
2022/07/20 07:35:52;;;;;;;10.57;4.17;;;27.70;90.50;;;;;;5023466;28;20045;-51
2022/07/20 07:38:18;;;;;;;12.30;3.38;;;27.80;90.10;;;;;;5029270;28;20084;-51
2022/07/20 07:40:43;;;;;;;10.10;3.25;;;27.80;88.30;;;;;;5027600;28;20037;-53
2022/07/20 07:43:09;;;;;;;15.40;3.38;;;;;;;;;;5031930;28;20037;-51
2022/07/20 07:45:35;;;;;;;6.95;2.55;;;28.20;87.30;;;;;;5023533;28;20512;-50
2022/07/20 07:48:01;;;;;;;8.73;3.50;;;28.30;88.60;;;;;;5032439;28;20033;-51
2022/07/20 07:50:27;;;;;;;9.45;3.88;;;28.40;87.80;;;;;;5027604;28;20536;-50
2022/07/20 07:52:53;;;;;;;6.55;2.85;;;28.50;88.30;;;;;;5019495;28;20161;-54
2022/07/20 07:55:19;;;;;;;13.15;3.35;;;28.50;86.90;;;;;;5022257;28;20106;-51
2022/07/20 07:57:44;;;;;;;7.80;2.80;;;28.80;88.90;;;;;;5021094;28;20041;-54
2022/07/20 08:00:10;;;;;;;11.15;3.38;;;28.90;86.70;;;;;;5029199;28;20025;-54
2022/07/20 08:02:36;;;;;;;9.88;3.20;;;29.00;86.00;;;;;;5015444;28;20044;-52
2022/07/20 08:05:02;;;;;;;11.23;2.88;;;29.10;85.10;;;;;;5023089;28;20034;-52
2022/07/20 08:07:28;;;;;;;5.90;2.70;;;;;;;;;;5019993;28;20045;-52
2022/07/20 08:09:54;;;;;;;9.18;3.35;;;;;;;;;;5017138;28;20061;-52
2022/07/20 08:12:20;;;;;;;10.32;3.70;;;;;;;;;;5031320;28;20041;-54
2022/07/20 08:14:46;;;;;;;6.72;2.78;;;29.70;80.40;;;;;;5032139;28;20539;-52
2022/07/20 08:17:12;;;;;;;7.25;2.80;;;;;;;;;;5031518;28;20033;-53
2022/07/20 08:19:38;;;;;;;16.05;3.13;;;30.00;92.40;;;;;;5031381;28;20033;-53
2022/07/20 08:22:04;;;;;;;7.13;2.83;;;30.20;81.30;;;;;;5031450;28;20033;-52
2022/07/20 08:24:30;;;;;;;8.70;2.63;;;;;;;;;;5031671;28;20033;-52
2022/07/20 08:26:56;;;;;;;5.03;2.60;;;;;;;;;;5031309;28;20424;-53
2022/07/20 08:29:22;;;;;;;7.78;2.88;;;;;;;;;;5031473;28;20485;-53
2022/07/20 08:31:48;;;;;;;11.63;2.85;;;;;;;;;;5032175;28;20026;-54
2022/07/20 08:34:14;;;;;;;14.90;3.22;;;;;;;;;;5031336;28;20037;-53
2022/07/20 08:36:40;;;;;;;19.95;5.68;;;31.00;95.40;;;;;;5031262;28;20072;-53
2022/07/20 08:39:06;;;;;;;10.25;3.30;;;31.20;94.10;;;;;;5031226;28;20037;-52
2022/07/20 08:41:35;;;;;;;8.07;2.70;;;;;;;;;;5029216;28;20296;-52
2022/07/20 08:44:01;;;;;;;6.55;2.55;;;;;;;;;;5045288;28;20057;-52
2022/07/20 08:46:30;;;;;;;9.25;2.80;;;31.30;96.80;;;;;;5029261;28;20473;-52
2022/07/20 08:48:56;;;;;;;6.53;2.50;;;31.30;77.80;;;;;;5031327;28;20037;-53
2022/07/20 08:51:22;;;;;;;7.75;2.30;;;31.40;76.10;;;;;;5045236;28;20045;-52
2022/07/20 08:53:50;;;;;;;4.03;2.10;;;31.50;76.20;;;;;;5030998;28;20030;-52
2022/07/20 08:56:16;;;;;;;8.30;2.65;;;;;;;;;;5045413;28;20076;-52
2022/07/20 08:58:43;;;;;;;10.63;2.25;;;;;;;;;;5031086;28;20030;-51
2022/07/20 09:01:13;;;;;;;10.75;3.28;;;;;;;;;;5030911;28;20022;-52
2022/07/20 09:03:41;;;;;;;7.80;2.05;;;;;;;;;;5027748;28;20025;-53
2022/07/20 09:06:07;;;;;;;7.32;2.13;;;32.30;74.20;;;;;;5031338;28;20167;-52
2022/07/20 09:08:34;;;;;;;8.07;3.13;;;;;;;;;;5030886;28;20042;-52
2022/07/20 09:11:01;;;;;;;10.15;2.40;;;32.70;99.90;;;;;;5031748;28;20037;-51
2022/07/20 09:13:32;;;;;;;5.97;2.30;;;32.70;74.90;;;;;;5034684;28;20080;-53
2022/07/20 09:15:58;;;;;;;6.68;2.22;;;32.70;74.90;;;;;;5026355;28;20484;-52
2022/07/20 09:18:29;;;;;;;6.30;2.17;;;32.80;74.90;;;;;;5034768;28;20030;-52
2022/07/20 09:20:57;;;;;;;5.80;2.33;;;32.90;74.20;;;;;;5049420;28;20046;-52
2022/07/20 09:23:24;;;;;;;6.70;2.40;;;33.20;87.20;;;;;;5035410;28;20033;-53
2022/07/20 09:26:13;;;;;;;4.40;2.33;;;33.10;77.10;;;;;;5034701;28;20075;-51
2022/07/20 09:28:40;;;;;;;8.35;2.22;;;;;;;;;;5012410;28;20041;-52
2022/07/20 09:31:11;;;;;;;3.88;2.10;;;;;;;;;;5012412;28;20716;-52
2022/07/20 09:33:37;;;;;;;4.38;1.77;;;33.70;74.80;;;;;;5013098;28;20038;-53
2022/07/20 09:36:05;;;;;;;5.85;2.05;;;33.60;71.80;;;;;;5012346;28;20129;-52
2022/07/20 09:38:33;;;;;;;2.70;1.70;;;;;;;;;;4992901;28;20039;-53
2022/07/20 09:40:59;;;;;;;5.38;2.00;;;;;;;;;;5012894;28;20132;-52
2022/07/20 09:43:29;;;;;;;7.13;2.05;;;;;;;;;;5012021;28;20053;-53
2022/07/20 09:46:08;;;;;;;6.45;2.10;;;;;;;;;;4992765;28;20044;-53
2022/07/20 09:48:39;;;;;;;9.45;2.38;;;;;;;;;;5012144;28;20034;-52
2022/07/20 09:51:16;;;;;;;8.57;2.88;;;;;;;;;;5012064;28;20026;-52
2022/07/20 09:53:42;;;;;;;4.47;1.92;;;34.90;82.20;;;;;;5011957;28;20493;-52
2022/07/20 09:56:08;;;;;;;5.40;3.08;;;34.90;72.50;;;;;;5012085;28;20061;-54
2022/07/20 09:58:34;;;;;;;4.20;2.13;;;34.90;73.30;;;;;;5011800;28;20117;-52
2022/07/20 10:01:00;;;;;;;5.47;1.80;;;34.80;75.20;;;;;;5012419;28;20034;-53
2022/07/20 10:03:28;;;;;;;3.90;1.98;;;35.00;90.70;;;;;;5011862;28;20479;-53
2022/07/20 10:05:54;;;;;;;5.47;1.98;;;;;;;;;;5022672;28;20049;-53
2022/07/20 10:08:20;;;;;;;3.88;2.05;;;;;;;;;;5033958;28;20030;-51
2022/07/20 10:10:46;;;;;;;3.92;1.85;;;;;;;;;;5033886;28;20033;-53
2022/07/20 10:13:12;;;;;;;6.30;2.13;;;;;;;;;;5033763;28;20115;-51
2022/07/20 10:15:51;;;;;;;3.95;2.00;;;35.70;74.40;;;;;;5033564;28;20095;-53
2022/07/20 10:18:18;;;;;;;3.10;1.85;;;;;;;;;;5033478;28;20036;-53
2022/07/20 10:20:44;;;;;;;3.03;1.67;;;;;;;;;;5033566;28;20029;-52
2022/07/20 10:23:16;;;;;;;7.05;2.20;;;;;;;;;;5033098;28;20446;-53
2022/07/20 10:25:46;;;;;;;4.78;1.98;;;;;;;;;;5033479;28;20501;-53
2022/07/20 10:28:26;;;;;;;3.70;1.90;;;;;;;;;;5033572;28;20033;-53
2022/07/20 10:31:06;;;;;;;9.52;2.22;;;;;;;;;;5031791;28;20033;-53
2022/07/20 10:33:34;;;;;;;28.52;18.30;;;36.10;66.00;;;;;;5033323;28;20030;-52
2022/07/20 10:39:48;;;;;;;3.47;1.90;;;35.90;66.10;;;;;;5014924;28;20037;-51
2022/07/20 10:42:28;;;;;;;4.88;2.20;;;36.10;66.20;;;;;;5032225;28;20492;-53
2022/07/20 10:45:15;;;;;;;6.13;2.00;;;36.00;66.90;;;;;;5029887;28;20045;-52
2022/07/20 10:47:45;;;;;;;4.75;2.00;;;36.30;68.60;;;;;;5030795;28;20029;-53
2022/07/20 10:50:22;;;;;;;3.88;1.77;;;36.60;67.30;;;;;;5033167;28;20048;-52
2022/07/20 10:52:53;;;;;;;5.75;2.30;;;36.50;67.60;;;;;;5043687;28;20038;-52
2022/07/20 10:55:36;;;;;;;8.43;1.93;;;36.60;66.50;;;;;;5032405;28;20124;-53
2022/07/20 10:58:04;;;;;;;5.50;2.63;;;;;;;;;;5032759;28;20068;-52
2022/07/20 11:00:34;;;;;;;4.72;2.17;;;;;;;;;;5045644;28;20041;-51
2022/07/20 11:03:01;;;;;;;7.75;2.03;;;;;;;;;;5033636;28;20480;-51
2022/07/20 11:05:27;;;;;;;7.32;2.72;;;;;;;;;;5047139;28;20374;-51
2022/07/20 11:07:53;;;;;;;8.25;2.28;;;37.20;86.00;;;;;;5032768;28;20679;-52
2022/07/20 11:10:26;;;;;;;5.85;2.20;;;37.30;91.10;;;;;;5032649;28;20060;-52
2022/07/20 11:13:00;;;;;;;4.60;2.00;;;37.60;90.80;;;;;;5047258;28;20034;-51
2022/07/20 11:15:40;;;;;;;8.30;2.20;;;37.20;82.20;;;;;;5032385;28;20041;-52
2022/07/20 11:18:07;;;;;;;5.38;2.28;;;37.20;80.80;;;;;;5047149;28;20140;-51
2022/07/20 11:20:33;;;;;;;4.80;1.88;;;37.20;81.90;;;;;;5047786;28;20045;-52
2022/07/20 11:23:01;;;;;;;5.07;2.17;;;37.50;83.10;;;;;;5047072;28;20045;-54
2022/07/20 11:25:43;;;;;;;3.67;1.90;;;37.50;84.00;;;;;;5046765;28;20071;-53
2022/07/20 11:28:11;;;;;;;9.55;2.67;;;37.40;83.40;;;;;;5032339;28;20087;-54
2022/07/20 11:30:38;;;;;;;4.05;1.77;;;37.60;83.40;;;;;;5032080;28;20029;-52
2022/07/20 11:33:04;;;;;;;6.05;2.10;;;37.70;81.90;;;;;;5033096;28;20125;-54
2022/07/20 11:35:30;;;;;;;4.65;2.05;;;;;;;;;;5017418;28;20065;-54
2022/07/20 11:37:56;;;;;;;13.65;2.33;;;;;;;;;;5032090;28;20026;-53
2022/07/20 11:40:23;;;;;;;9.35;3.13;;;38.10;85.80;;;;;;5046766;28;20037;-52
2022/07/20 11:43:15;;;;;;;8.13;1.80;;;37.80;87.50;;;;;;5032339;28;20037;-53
2022/07/20 11:45:41;;;;;;;2.90;1.70;;;38.10;89.00;;;;;;5013467;28;20038;-52
2022/07/20 11:48:22;;;;;;;3.35;1.45;;;37.40;90.40;;;;;;5032625;28;20064;-54
2022/07/20 11:50:48;;;;;;;5.18;1.52;;;37.40;90.40;;;;;;5031737;28;20033;-52
2022/07/20 11:53:43;;;;;;;2.08;1.60;;;37.30;90.00;;;;;;5031871;28;20083;-53
2022/07/20 11:56:18;;;;;;;2.70;1.70;;;;;;;;;;5010294;28;20056;-52
2022/07/20 11:58:46;;;;;;;3.72;2.00;;;;;;;;;;5009931;28;20100;-54
2022/07/20 12:01:13;;;;;;;3.10;1.80;;;;;;;;;;4978283;28;20525;-52
2022/07/20 12:03:43;;;;;;;3.53;1.60;;;;;;;;;;4987113;28;20049;-52
2022/07/20 12:06:10;;;;;;;4.22;1.75;;;;;;;;;;4947370;28;20101;-52
2022/07/20 12:08:37;;;;;;;3.05;1.45;;;37.50;92.70;;;;;;4981065;28;20088;-51
2022/07/20 12:11:04;;;;;;;5.07;1.50;;;;;;;;;;4978398;28;20038;-52
2022/07/20 12:13:30;;;;;;;3.50;1.52;;;;;;;;;;4979874;28;20074;-53
2022/07/20 12:15:57;;;;;;;4.03;1.40;;;;;;;;;;4945090;28;20175;-53
2022/07/20 12:18:37;;;;;;;2.28;1.45;;;37.30;92.30;;;;;;4980465;28;20439;-52
2022/07/20 12:21:04;;;;;;;5.03;1.73;;;;;;;;;;4946634;28;20047;-53
2022/07/20 12:23:31;;;;;;;7.10;1.70;;;;;;;;;;4980951;28;20034;-54
2022/07/20 12:25:57;;;;;;;2.58;1.50;;;;;;;;;;4980092;28;20074;-53
2022/07/20 12:28:35;;;;;;;1.60;1.50;;;36.40;76.50;;;;;;4969768;28;20533;-53
2022/07/20 12:31:12;;;;;;;2.33;1.23;;;36.90;79.70;;;;;;4977998;28;20042;-54
2022/07/20 12:33:38;;;;;;;5.20;1.45;;;36.90;79.00;;;;;;4957681;28;20085;-52
2022/07/20 12:36:07;;;;;;;4.13;1.60;;;37.50;79.30;;;;;;4971805;28;20049;-54
2022/07/20 12:38:34;;;;;;;3.85;1.40;;;37.60;78.40;;;;;;4964267;28;20129;-53
2022/07/20 12:41:11;;;;;;;2.88;1.33;;;37.90;80.70;;;;;;5030402;28;20036;-54
2022/07/20 12:43:40;;;;;;;3.92;1.48;;;37.80;79.70;;;;;;5044375;28;20392;-54
2022/07/20 12:46:08;;;;;;;3.42;1.52;;;;;;;;;;5029467;28;20025;-51
2022/07/20 12:48:38;;;;;;;4.97;1.67;;;;;;;;;;5025994;28;20026;-52
2022/07/20 12:51:05;;;;;;;5.90;1.90;;;;;;;;;;5030191;28;20072;-53
2022/07/20 12:53:31;;;;;;;3.78;1.42;;;;;;;;;;5030755;28;20120;-52
2022/07/20 12:55:57;;;;;;;3.70;1.50;;;;;;;;;;5030009;28;20048;-52
2022/07/20 12:58:24;;;;;;;2.25;1.30;;;;;;;;;;5030165;28;20029;-52
2022/07/20 13:00:50;;;;;;;2.92;1.60;;;;;;;;;;5029993;28;20029;-51
2022/07/20 13:03:16;;;;;;;7.47;1.80;;;38.40;67.30;;;;;;5030139;28;20057;-52
2022/07/20 13:05:42;;;;;;;2.22;1.60;;;;;;;;;;5030907;28;20099;-52
2022/07/20 13:08:08;;;;;;;2.63;1.27;;;;;;;;;;5030006;28;20032;-51
2022/07/20 13:10:34;;;;;;;3.90;1.42;;;39.40;90.00;;;;;;5016305;28;20049;-52
2022/07/20 13:13:01;;;;;;;3.75;1.48;;;;;;;;;;5044439;28;20084;-52
2022/07/20 13:15:26;;;;;;;5.88;1.50;;;39.00;81.20;;;;;;5029831;28;20048;-52
2022/07/20 13:17:52;;;;;;;3.20;1.55;;;;;;;;;;5044358;28;20049;-51
2022/07/20 13:20:18;;;;;;;3.70;1.80;;;;;;;;;;5029851;28;20543;-51
2022/07/20 13:22:45;;;;;;;2.63;1.70;;;;;;;;;;5029668;28;20488;-51
2022/07/20 13:25:11;;;;;;;3.78;1.73;;;39.60;87.80;;;;;;5034409;28;20048;-51